Time;durP1;ratioP1;P1;durP2;ratioP2;P2;SDS_P1;SDS_P2;PMS_P1;PMS_P2;Temp;Humidity;BMP_temperature;BMP_pressure;BME280_temperature;BME280_humidity;BME280_pressure;Samples;Min_cycle;Max_cycle;Signal;HPM_P1;HPM_P2
2021/08/09 00:00:07;;;;;;;11.02;5.43;;;;;;;22.89;43.91;95119.47;5033464;28;20033;-78
2021/08/09 00:02:33;;;;;;;7.15;4.38;;;;;;;22.89;43.92;95126.66;5033294;28;20046;-78
2021/08/09 00:04:58;;;;;;;9.75;4.15;;;;;;;22.82;43.87;95124.44;5015384;28;20037;-78
2021/08/09 00:07:24;;;;;;;7.05;4.32;;;;;;;22.82;44.24;95128.94;4999166;28;20496;-78
2021/08/09 00:09:49;;;;;;;8.55;4.70;;;;;;;22.80;44.10;95107.25;5015198;28;20120;-78
2021/08/09 00:12:14;;;;;;;7.57;4.88;;;;;;;22.74;44.52;95125.13;4982463;28;20106;-78
2021/08/09 00:14:40;;;;;;;6.78;3.85;;;;;;;22.71;44.16;95136.31;5015188;28;20034;-78
2021/08/09 00:17:08;;;;;;;13.55;4.93;;;;;;;22.68;44.47;95135.06;5038049;22;20095;-78
2021/08/09 00:19:34;;;;;;;10.93;4.35;;;;;;;22.66;44.64;95134.56;5011889;28;20166;-78
2021/08/09 00:21:59;;;;;;;6.97;4.18;;;;;;;22.64;44.37;95131.44;5039265;22;20138;-78
2021/08/09 00:24:25;;;;;;;9.07;4.45;;;;;;;22.62;44.26;95130.19;5038499;22;20213;-78
2021/08/09 00:26:50;;;;;;;12.40;5.07;;;;;;;22.63;43.91;95129.09;5047115;22;20037;-78
2021/08/09 00:29:15;;;;;;;7.75;4.75;;;;;;;22.60;44.24;95134.97;5032959;28;20044;-78
2021/08/09 00:31:41;;;;;;;9.27;5.47;;;;;;;22.62;44.56;95130.19;4994014;28;20026;-78
2021/08/09 00:34:06;;;;;;;19.10;5.65;;;;;;;22.60;44.36;95135.75;5013077;28;20037;-78
2021/08/09 00:36:32;;;;;;;15.30;6.07;;;;;;;22.57;44.61;95139.00;5012905;28;20030;-77
2021/08/09 00:38:57;;;;;;;10.05;6.35;;;;;;;22.54;45.05;95131.66;5013092;28;20414;-78
2021/08/09 00:41:23;;;;;;;13.60;7.85;;;;;;;22.53;44.80;95135.41;4994605;28;20029;-78
2021/08/09 00:43:48;;;;;;;10.80;7.55;;;;;;;22.48;44.87;95124.91;5012586;28;20053;-78
2021/08/09 00:46:13;;;;;;;10.32;7.47;;;;;;;22.45;44.80;95122.84;5012724;28;20037;-78
2021/08/09 00:48:39;;;;;;;11.82;7.72;;;;;;;22.44;45.13;95121.28;5012954;28;20033;-78
2021/08/09 00:51:04;;;;;;;13.65;7.78;;;;;;;22.41;45.51;95122.66;5038705;22;20465;-78
2021/08/09 00:53:30;;;;;;;10.63;7.57;;;;;;;22.38;45.32;95114.53;5085723;22;20179;-78
2021/08/09 00:55:55;;;;;;;20.15;10.25;;;;;;;22.36;45.82;95114.06;5014420;28;20358;-78
2021/08/09 00:58:21;;;;;;;17.85;8.63;;;;;;;22.36;45.54;95116.69;5000352;23;20096;-78
2021/08/09 01:00:52;;;;;;;8.45;5.70;;;;;;;22.31;44.76;95117.59;5011115;28;20037;-78
2021/08/09 01:03:18;;;;;;;12.18;7.65;;;;;;;22.32;45.37;95115.72;5009696;28;20046;-78
2021/08/09 01:05:46;;;;;;;9.00;6.63;;;;;;;22.33;45.27;95117.31;5012295;28;20030;-78
2021/08/09 01:08:29;;;;;;;13.27;6.90;;;;;;;22.33;45.59;95118.09;5010206;28;20040;-78
2021/08/09 01:11:22;;;;;;;9.23;6.95;;;;;;;22.33;45.55;95122.59;5010537;28;20033;-78
2021/08/09 01:13:57;;;;;;;9.63;6.97;;;;;;;22.31;45.71;95122.91;4993144;28;20518;-78
2021/08/09 01:16:31;;;;;;;9.38;6.53;;;;;;;22.28;45.76;95128.78;4994629;28;20049;-78
2021/08/09 01:19:01;;;;;;;14.32;5.97;;;;;;;22.26;45.71;95135.44;4994645;28;20471;-78
2021/08/09 01:21:28;;;;;;;8.80;6.00;;;;;;;22.24;45.87;95142.91;4978812;28;20038;-78
2021/08/09 01:24:13;;;;;;;10.55;5.25;;;;;;;22.21;46.29;95140.88;4960605;28;20033;-78
2021/08/09 01:27:03;;;;;;;8.00;4.65;;;;;;;22.19;46.16;95143.03;5011309;28;20139;-78
2021/08/09 01:29:37;;;;;;;11.77;5.75;;;;;;;22.14;46.25;95134.13;5006801;28;20026;-77
2021/08/09 01:32:02;;;;;;;12.15;6.22;;;;;;;22.11;46.34;95131.25;5020400;28;20068;-78
2021/08/09 01:34:28;;;;;;;10.90;6.45;;;;;;;22.09;46.33;95126.25;5052253;22;20501;-77
2021/08/09 01:36:54;;;;;;;7.65;6.57;;;;;;;22.08;46.41;95127.34;5040432;28;20599;-78
2021/08/09 01:39:20;;;;;;;25.13;7.35;;;;;;;22.11;46.74;95131.25;5022631;28;20562;-78
2021/08/09 01:41:45;;;;;;;14.95;8.20;;;;;;;22.10;46.54;95127.03;5022266;28;20038;-78
2021/08/09 01:44:10;;;;;;;23.13;8.02;;;;;;;22.07;46.71;95128.41;5021991;28;20030;-77
2021/08/09 01:46:36;;;;;;;21.33;6.90;;;;;;;22.06;46.59;95134.78;4982943;28;20026;-79
2021/08/09 01:49:03;;;;;;;9.82;5.82;;;;;;;22.05;46.66;95141.19;4980766;28;20029;-78
2021/08/09 01:51:29;;;;;;;11.35;5.63;;;;;;;22.00;46.94;95143.91;5031191;28;20037;-78
2021/08/09 01:53:54;;;;;;;9.48;5.40;;;;;;;21.96;47.06;95147.41;4995326;28;20033;-78
2021/08/09 01:56:20;;;;;;;6.55;5.07;;;;;;;21.95;47.02;95146.63;5014425;28;20406;-78
2021/08/09 01:58:46;;;;;;;9.07;4.68;;;;;;;21.92;47.08;95144.59;5033752;28;20033;-77
2021/08/09 02:01:18;;;;;;;9.43;5.05;;;;;;;21.88;47.28;95146.25;5034807;28;20022;-77
2021/08/09 02:03:44;;;;;;;6.47;5.05;;;;;;;21.84;46.99;95148.72;5004752;28;20045;-78
2021/08/09 02:06:09;;;;;;;11.50;5.60;;;;;;;21.83;47.04;95149.78;5005170;28;20021;-77
2021/08/09 02:11:24;;;;;;;8.32;5.68;;;;;;;21.81;46.96;95154.59;5038156;22;20111;-78
2021/08/09 02:13:55;;;;;;;14.70;5.22;;;;;;;21.82;46.82;95155.38;5030600;28;20033;-78
2021/08/09 02:16:45;;;;;;;9.68;4.80;;;;;;;21.77;47.10;95152.81;4980781;28;20299;-78
2021/08/09 02:19:48;;;;;;;13.25;4.80;;;;;;;21.76;47.17;95159.19;4996194;28;20061;-78
2021/08/09 02:22:19;;;;;;;16.83;4.93;;;;;;;21.72;46.99;95159.00;5030552;28;20041;-78
2021/08/09 02:24:46;;;;;;;10.05;4.50;;;;;;;21.71;47.68;95161.94;4995773;28;20112;-78
2021/08/09 02:27:13;;;;;;;15.43;4.70;;;;;;;21.69;47.78;95159.59;5011610;28;20033;-78
2021/08/09 02:29:40;;;;;;;15.88;4.10;;;;;;;21.68;47.44;95167.81;5012726;28;20417;-78
2021/08/09 02:32:07;;;;;;;14.57;4.40;;;;;;;21.62;47.63;95163.69;4996783;28;20409;-78
2021/08/09 02:34:32;;;;;;;7.32;3.40;;;;;;;21.57;47.78;95168.00;5016996;22;20143;-79
2021/08/09 02:36:59;;;;;;;9.63;3.25;;;;;;;21.54;47.49;95168.59;4996497;28;20034;-79
2021/08/09 02:39:38;;;;;;;7.57;3.60;;;;;;;21.53;47.53;95172.31;5015132;28;20098;-78
2021/08/09 02:42:03;;;;;;;16.45;4.47;;;;;;;21.50;47.73;95174.75;5016792;28;20104;-78
2021/08/09 02:44:29;;;;;;;15.48;4.10;;;;;;;21.44;47.72;95174.03;5018355;28;20111;-80
2021/08/09 02:46:54;;;;;;;5.97;2.88;;;;;;;21.39;47.96;95176.78;5014334;28;20096;-78
2021/08/09 02:49:20;;;;;;;7.60;3.63;;;;;;;21.40;47.73;95185.50;4983510;28;20489;-79
2021/08/09 02:51:46;;;;;;;13.80;3.92;;;;;;;21.39;47.99;95181.28;5033665;28;20083;-80
2021/08/09 02:54:13;;;;;;;11.07;4.28;;;;;;;21.34;48.21;95174.22;4983759;28;20049;-78
2021/08/09 02:56:39;;;;;;;10.88;3.90;;;;;;;21.34;48.14;95179.53;5004313;28;20053;-78
2021/08/09 02:59:04;;;;;;;8.20;3.70;;;;;;;21.31;47.96;95182.72;5006498;28;20043;-78
2021/08/09 03:01:30;;;;;;;12.57;4.18;;;;;;;21.31;48.13;95193.31;4993708;28;20033;-78
2021/08/09 03:03:58;;;;;;;9.85;4.35;;;;;;;21.32;48.01;95196.75;5015943;28;20413;-78
2021/08/09 03:06:23;;;;;;;15.75;5.63;;;;;;;21.28;48.07;95192.03;4983259;28;20118;-78
2021/08/09 03:08:49;;;;;;;20.00;6.45;;;;;;;21.28;48.19;95193.88;5016056;28;20085;-78
2021/08/09 03:11:14;;;;;;;21.80;7.20;;;;;;;21.26;48.15;95198.69;5029899;28;20037;-78
2021/08/09 03:13:45;;;;;;;23.13;9.32;;;;;;;21.25;48.22;95199.75;5033395;28;20037;-78
2021/08/09 03:16:10;;;;;;;18.40;8.32;;;;;;;21.20;48.27;95205.13;5032931;28;20528;-78
2021/08/09 03:18:36;;;;;;;16.88;7.95;;;;;;;21.18;48.42;95207.25;4999277;28;20061;-78
2021/08/09 03:21:01;;;;;;;14.05;6.85;;;;;;;21.20;48.40;95205.13;4997982;28;20030;-78
2021/08/09 03:23:26;;;;;;;21.33;7.03;;;;;;;21.17;48.56;95195.13;5033214;28;20536;-78
2021/08/09 03:25:52;;;;;;;11.35;6.18;;;;;;;21.16;48.81;95191.69;5032050;28;20076;-78
2021/08/09 03:28:17;;;;;;;29.05;7.15;;;;;;;21.18;48.78;95196.69;5031418;28;20106;-77
2021/08/09 03:30:43;;;;;;;16.90;6.47;;;;;;;21.18;48.78;95205.41;5033195;28;20033;-77
2021/08/09 03:33:11;;;;;;;16.25;5.18;;;;;;;21.21;48.80;95204.03;5034208;28;20048;-77
2021/08/09 03:35:37;;;;;;;27.70;5.28;;;;;;;21.22;48.58;95202.97;5032877;28;20169;-77
2021/08/09 03:38:02;;;;;;;9.80;4.95;;;;;;;21.23;48.34;95201.88;5032232;28;20199;-77
2021/08/09 03:40:34;;;;;;;15.38;4.97;;;;;;;21.26;48.29;95198.69;5029854;28;20074;-78
2021/08/09 03:43:00;;;;;;;;;;;;;;;21.30;48.23;95199.66;5033352;28;20483;-77
2021/08/09 03:45:28;;;;;;;16.77;4.30;;;;;;;21.28;48.17;95207.91;5031555;28;20053;-77
2021/08/09 03:47:57;;;;;;;8.65;4.00;;;;;;;21.34;48.00;95205.97;5033535;28;20025;-78
2021/08/09 03:50:22;;;;;;;19.75;4.75;;;;;;;21.38;48.18;95204.31;5032606;28;20065;-79
2021/08/09 03:52:50;;;;;;;17.20;4.60;;;;;;;21.45;47.92;95204.72;5031317;28;20025;-80
2021/08/09 03:55:16;;;;;;;12.55;4.60;;;;;;;21.55;47.77;95209.06;5036248;28;20474;-79
2021/08/09 03:57:41;;;;;;;16.13;4.95;;;;;;;21.62;47.78;95211.31;5035347;28;20116;-79
2021/08/09 04:00:07;;;;;;;23.67;4.85;;;;;;;21.69;47.51;95212.53;5036652;28;20033;-79
2021/08/09 04:02:33;;;;;;;16.55;4.68;;;;;;;21.81;47.03;95215.50;5034517;28;20034;-79
2021/08/09 04:04:58;;;;;;;22.58;5.05;;;;;;;21.92;46.77;95218.72;5086112;22;20044;-78
2021/08/09 04:07:27;;;;;;;26.38;5.30;;;;;;;22.03;46.41;95227.28;5035403;28;20037;-78
2021/08/09 04:09:53;;;;;;;32.50;5.97;;;;;;;22.11;46.55;95230.03;5033364;28;20029;-78
2021/08/09 04:12:18;;;;;;;22.73;5.63;;;;;;;22.20;46.78;95222.19;5033282;28;20458;-78
2021/08/09 04:14:44;;;;;;;40.78;6.15;;;;;;;22.50;46.09;95226.09;4980610;28;20152;-79
2021/08/09 04:17:09;;;;;;;23.40;5.63;;;;;;;23.84;42.82;95215.59;5016103;28;20025;-78
2021/08/09 04:19:34;;;;;;;23.80;5.78;;;;;;;25.39;39.35;95214.38;5033179;28;20544;-78
2021/08/09 04:22:00;;;;;;;34.05;6.00;;;;;;;26.78;36.82;95215.41;4983142;28;20033;-78
2021/08/09 04:24:25;;;;;;;26.50;6.43;;;;;;;28.04;34.16;95211.47;4983286;28;20568;-78
2021/08/09 04:26:51;;;;;;;33.20;5.78;;;;;;;29.34;32.03;95201.63;5014085;28;20162;-79
2021/08/09 04:29:16;;;;;;;34.08;5.80;;;;;;;30.42;29.84;95217.38;5031861;28;20417;-80
2021/08/09 04:31:42;;;;;;;23.67;5.55;;;;;;;31.62;28.11;95229.16;5030916;28;20037;-78
2021/08/09 04:34:07;;;;;;;32.83;6.28;;;;;;;32.67;26.47;95214.41;5031320;28;20040;-78
2021/08/09 04:36:33;;;;;;;29.70;5.28;;;;;;;33.69;25.52;95216.09;5032554;28;20083;-78
2021/08/09 04:39:14;;;;;;;43.83;5.80;;;;;;;34.70;24.17;95213.13;5013764;28;20037;-78
2021/08/09 04:41:41;;;;;;;26.42;5.15;;;;;;;35.60;22.90;95218.56;5010821;28;20051;-78
2021/08/09 04:44:07;;;;;;;45.38;6.15;;;;;;;36.50;21.86;95216.78;5031187;28;20040;-78
2021/08/09 04:46:33;;;;;;;24.05;5.13;;;;;;;37.35;20.69;95224.75;5030653;28;20048;-78
2021/08/09 04:49:01;;;;;;;36.33;5.35;;;;;;;38.10;20.33;95227.84;5031700;28;20029;-78
2021/08/09 04:51:26;;;;;;;28.45;4.88;;;;;;;38.84;19.17;95230.34;5031684;28;20041;-78
2021/08/09 04:53:55;;;;;;;27.70;4.60;;;;;;;39.46;18.36;95232.78;4999588;28;20042;-78
2021/08/09 04:56:20;;;;;;;28.55;5.05;;;;;;;40.25;17.60;95237.94;5087616;22;20053;-78
2021/08/09 04:58:46;;;;;;;10.65;3.97;;;;;;;40.82;16.42;95242.47;5034245;28;20029;-77
2021/08/09 05:01:11;;;;;;;8.13;3.78;;;;;;;41.39;15.79;95252.34;5034099;28;20037;-78
2021/08/09 05:03:45;;;;;;;27.63;5.38;;;;;;;42.14;16.23;95246.06;5015883;28;20417;-77
2021/08/09 05:06:14;;;;;;;23.77;4.97;;;;;;;42.79;15.54;95251.50;5034605;28;20026;-78
2021/08/09 05:08:42;;;;;;;14.52;3.92;;;;;;;43.44;14.64;95254.09;5032658;28;20037;-78
2021/08/09 05:11:08;;;;;;;33.28;6.30;;;;;;;44.03;14.30;95252.00;5032264;28;20061;-78
2021/08/09 05:13:33;;;;;;;24.92;5.20;;;;;;;44.45;13.82;95249.16;5035283;28;20481;-78
2021/08/09 05:16:02;;;;;;;18.00;5.22;;;;;;;45.05;13.39;95249.88;5034653;28;20037;-78
2021/08/09 05:18:28;;;;;;;19.98;4.43;;;;;;;45.28;13.10;95261.69;5035648;28;20543;-78
2021/08/09 05:20:53;;;;;;;15.50;4.35;;;;;;;45.72;12.22;95251.44;5035341;28;20033;-78
2021/08/09 05:23:19;;;;;;;9.40;3.08;;;;;;;46.13;11.93;95258.53;5036059;28;20017;-79
2021/08/09 05:25:44;;;;;;;12.40;3.10;;;;;;;46.54;11.55;95260.03;5016586;28;20025;-79
2021/08/09 05:28:09;;;;;;;8.88;2.95;;;;;;;47.07;10.91;95257.03;5035107;28;20025;-79
2021/08/09 05:30:35;;;;;;;12.85;3.20;;;;;;;47.55;10.65;95256.56;5035752;28;20033;-79
2021/08/09 05:33:01;;;;;;;4.43;2.47;;;;;;;47.97;10.40;95257.38;5001880;28;20037;-79
2021/08/09 05:35:27;;;;;;;9.18;2.80;;;;;;;48.15;10.22;95250.25;5017865;28;20425;-79
2021/08/09 05:37:52;;;;;;;9.18;2.55;;;;;;;48.32;9.79;95256.94;5035724;28;20038;-79
2021/08/09 05:40:18;;;;;;;8.27;2.65;;;;;;;48.39;9.76;95253.84;5017873;28;20033;-79
2021/08/09 05:42:49;;;;;;;15.35;2.47;;;;;;;48.54;9.35;95253.91;5017955;28;20481;-79
2021/08/09 05:45:15;;;;;;;10.20;2.67;;;;;;;48.93;9.11;95257.47;5035177;28;20034;-79
2021/08/09 05:47:40;;;;;;;21.17;3.00;;;;;;;49.41;9.22;95266.47;5017302;28;20037;-79
2021/08/09 05:50:06;;;;;;;19.40;3.55;;;;;;;49.88;9.19;95268.28;5035230;28;20033;-79
2021/08/09 05:52:31;;;;;;;20.92;3.60;;;;;;;50.26;8.70;95263.06;5035432;28;20037;-79
2021/08/09 05:57:26;;;;;;;15.90;3.30;;;;;;;49.76;9.30;95263.06;5045468;22;20061;-79
2021/08/09 06:00:00;;;;;;;21.20;2.70;;;;;;;49.87;8.45;95261.22;5035192;28;20045;-79
2021/08/09 06:02:26;;;;;;;8.20;2.85;;;;;;;49.56;8.56;95264.47;5035429;28;20083;-79
2021/08/09 06:04:51;;;;;;;4.22;2.17;;;;;;;49.54;9.09;95255.13;5035408;28;20030;-79
2021/08/09 06:07:17;;;;;;;7.72;2.13;;;;;;;49.66;8.53;95261.63;5035246;28;20464;-79
2021/08/09 06:09:43;;;;;;;13.57;2.28;;;;;;;49.88;8.61;95262.75;5035380;28;20087;-79
2021/08/09 06:12:09;;;;;;;6.60;2.03;;;;;;;50.28;8.06;95274.41;5035114;28;20025;-79
2021/08/09 06:14:34;;;;;;;8.05;1.98;;;;;;;50.03;8.49;95268.28;5017407;28;20032;-79
2021/08/09 06:17:03;;;;;;;10.40;2.05;;;;;;;49.94;8.64;95264.84;4985155;28;20504;-79
2021/08/09 06:19:29;;;;;;;3.85;1.70;;;;;;;50.02;7.94;95254.94;5021683;28;20092;-79
2021/08/09 06:21:55;;;;;;;4.22;1.67;;;;;;;49.95;8.45;95258.81;5003125;28;20036;-79
2021/08/09 06:24:21;;;;;;;4.38;1.77;;;;;;;49.53;8.57;95259.13;5038882;28;20030;-79
2021/08/09 06:26:47;;;;;;;8.43;1.50;;;;;;;49.40;8.27;95253.88;5038330;28;20033;-79
2021/08/09 06:29:13;;;;;;;8.75;1.73;;;;;;;48.94;8.85;95250.72;5021258;28;20036;-79
2021/08/09 06:31:41;;;;;;;8.82;1.88;;;;;;;48.38;8.93;95255.06;5021111;28;20048;-79
2021/08/09 06:34:10;;;;;;;9.20;1.55;;;;;;;48.08;9.37;95251.38;5022273;28;20030;-78
2021/08/09 06:36:42;;;;;;;2.80;1.75;;;;;;;47.12;10.26;95261.16;5002961;28;20033;-79
2021/08/09 06:39:07;;;;;;;6.70;2.00;;;;;;;46.16;10.66;95254.84;5038918;28;20029;-79
2021/08/09 06:41:34;;;;;;;14.25;2.65;;;;;;;45.17;11.25;95254.56;5037882;28;20036;-79
2021/08/09 06:43:59;;;;;;;12.57;2.30;;;;;;;44.39;11.89;95251.69;5003340;28;20029;-78
2021/08/09 06:46:25;;;;;;;6.22;2.42;;;;;;;43.56;11.92;95249.09;5019404;28;20032;-78
2021/08/09 06:48:51;;;;;;;9.63;2.30;;;;;;;43.11;12.58;95249.94;5035953;28;20520;-78
2021/08/09 06:51:22;;;;;;;3.70;1.80;;;;;;;42.71;13.12;95255.66;5037579;28;20051;-78
2021/08/09 06:53:47;;;;;;;12.82;2.45;;;;;;;42.17;13.42;95253.44;5019911;28;20045;-79
2021/08/09 06:56:14;;;;;;;8.07;2.53;;;;;;;41.86;14.27;95254.91;5019054;28;20420;-79
2021/08/09 06:58:39;;;;;;;10.18;2.10;;;;;;;41.40;13.71;95258.56;5035664;28;20022;-78
2021/08/09 07:01:05;;;;;;;13.18;2.33;;;;;;;40.78;14.24;95255.38;5037194;28;20029;-79
2021/08/09 07:03:30;;;;;;;5.38;2.65;;;;;;;40.37;14.73;95261.13;5036890;28;20040;-78
2021/08/09 07:05:56;;;;;;;10.10;2.35;;;;;;;39.88;15.08;95255.97;5036462;28;20033;-78
2021/08/09 07:08:22;;;;;;;10.93;2.30;;;;;;;39.56;15.39;95258.34;5036933;28;20120;-79
2021/08/09 07:10:50;;;;;;;8.30;2.17;;;;;;;39.03;15.89;95248.78;5019288;28;20026;-78
2021/08/09 07:13:16;;;;;;;10.38;3.30;;;;;;;38.91;16.32;95252.81;5036336;28;20163;-78
2021/08/09 07:15:47;;;;;;;18.85;5.60;;;;;;;38.85;16.73;95245.47;5016901;28;20037;-78
2021/08/09 07:18:16;;;;;;;9.43;2.42;;;;;;;38.80;16.99;95243.97;5035572;28;20067;-79
2021/08/09 07:20:41;;;;;;;10.80;3.00;;;;;;;38.75;16.82;95249.88;5035230;28;20029;-78
2021/08/09 07:23:07;;;;;;;4.57;2.45;;;;;;;38.13;17.38;95246.03;5034782;28;20044;-78
2021/08/09 07:25:33;;;;;;;7.53;2.90;;;;;;;37.87;17.13;95252.03;5036231;28;20045;-78
2021/08/09 07:27:58;;;;;;;9.23;2.60;;;;;;;37.83;17.85;95245.84;5004223;28;20415;-78
2021/08/09 07:30:24;;;;;;;7.70;2.40;;;;;;;37.65;17.96;95245.16;5001095;28;20036;-78
2021/08/09 07:32:49;;;;;;;11.48;2.92;;;;;;;37.48;18.07;95244.06;5001592;28;20079;-77
2021/08/09 07:37:44;;;;;;;8.45;2.88;;;;;;;37.31;18.55;95251.13;5051595;22;20056;-78
2021/08/09 07:40:10;;;;;;;10.75;3.03;;;;;;;37.30;18.73;95255.00;5034623;28;20413;-78
2021/08/09 07:42:35;;;;;;;12.38;2.85;;;;;;;37.34;19.07;95255.75;5017131;28;20028;-79
2021/08/09 07:45:01;;;;;;;5.90;4.35;;;;;;;37.48;18.90;95247.56;5034741;28;20030;-79
2021/08/09 07:47:26;;;;;;;8.18;3.15;;;;;;;37.37;18.89;95252.25;4999290;28;20390;-78
2021/08/09 07:49:52;;;;;;;13.98;3.72;;;;;;;37.40;19.19;95256.88;5034752;28;20038;-78
2021/08/09 07:52:18;;;;;;;12.32;3.00;;;;;;;37.41;18.56;95253.00;5034957;28;20033;-78
2021/08/09 07:54:43;;;;;;;15.50;2.97;;;;;;;37.29;19.27;95261.59;5032738;28;20029;-78
2021/08/09 07:57:14;;;;;;;8.35;2.97;;;;;;;37.22;18.79;95261.56;5035148;28;20032;-78
2021/08/09 07:59:39;;;;;;;13.45;2.90;;;;;;;37.26;19.26;95265.03;5035693;28;20033;-80
2021/08/09 08:02:05;;;;;;;10.55;3.15;;;;;;;37.02;19.46;95263.97;5034615;28;20025;-78
2021/08/09 08:04:30;;;;;;;19.42;3.70;;;;;;;36.95;19.18;95264.75;5034787;28;20029;-78
2021/08/09 08:06:56;;;;;;;5.95;3.65;;;;;;;36.82;19.20;95268.25;5034864;28;20110;-80
2021/08/09 08:09:24;;;;;;;15.57;3.22;;;;;;;36.72;19.76;95261.66;5037603;28;20037;-81
2021/08/09 08:11:50;;;;;;;4.13;3.38;;;;;;;36.70;19.77;95263.97;5036807;28;20064;-80
2021/08/09 08:14:15;;;;;;;11.90;3.40;;;;;;;36.74;19.74;95269.38;5034188;28;20034;-77
2021/08/09 08:16:46;;;;;;;7.93;3.67;;;;;;;36.65;20.36;95267.09;5034868;28;20033;-80
2021/08/09 08:19:11;;;;;;;17.33;3.42;;;;;;;36.58;19.54;95267.09;5036421;28;20029;-80
2021/08/09 08:21:36;;;;;;;10.13;3.38;;;;;;;36.59;20.15;95263.22;5036985;28;20485;-79
2021/08/09 08:24:02;;;;;;;10.43;3.65;;;;;;;36.50;19.74;95260.91;5033108;28;20042;-78
2021/08/09 08:26:43;;;;;;;9.57;3.92;;;;;;;36.09;20.35;95257.75;5036585;28;20401;-80
2021/08/09 08:29:08;;;;;;;8.18;3.42;;;;;;;35.95;20.26;95261.19;5036213;28;20029;-80
2021/08/09 08:31:34;;;;;;;15.85;4.00;;;;;;;35.87;20.55;95256.94;5019002;28;20029;-80
2021/08/09 08:33:59;;;;;;;12.82;3.90;;;;;;;35.68;20.75;95259.97;5033372;28;20060;-80
2021/08/09 08:36:25;;;;;;;21.55;5.75;;;;;;;35.59;21.17;95257.59;5036692;28;20087;-80
2021/08/09 08:38:50;;;;;;;17.60;3.97;;;;;;;35.54;20.97;95255.28;5035648;28;20029;-80
2021/08/09 08:41:16;;;;;;;11.20;4.80;;;;;;;35.58;21.09;95253.34;5035609;28;20029;-80
2021/08/09 08:43:48;;;;;;;7.35;4.05;;;;;;;35.63;20.82;95252.97;5035795;28;20497;-79
2021/08/09 08:46:13;;;;;;;11.98;4.30;;;;;;;35.71;21.43;95251.84;5036696;28;20036;-79
2021/08/09 08:48:39;;;;;;;8.07;4.22;;;;;;;35.78;20.99;95249.16;5036816;28;20029;-80
2021/08/09 08:51:05;;;;;;;18.10;4.88;;;;;;;35.74;20.77;95253.00;5036612;28;20026;-80
2021/08/09 08:53:31;;;;;;;10.70;3.42;;;;;;;35.59;21.09;95252.19;5018484;28;20037;-80
2021/08/09 08:55:57;;;;;;;11.93;4.85;;;;;;;35.52;21.69;95254.13;4985649;28;20485;-80
2021/08/09 08:58:28;;;;;;;8.95;4.18;;;;;;;35.49;21.37;95250.25;5035107;28;20158;-80
2021/08/09 09:00:54;;;;;;;11.27;5.13;;;;;;;35.42;20.92;95242.88;5036556;28;20025;-79
2021/08/09 09:03:24;;;;;;;12.02;5.10;;;;;;;35.49;21.18;95244.84;5033054;28;20030;-79
2021/08/09 09:05:59;;;;;;;9.18;5.18;;;;;;;35.42;21.29;95242.88;5036202;28;20480;-80
2021/08/09 09:08:44;;;;;;;8.30;5.15;;;;;;;35.48;21.25;95246.00;5036157;28;20104;-80
2021/08/09 09:11:14;;;;;;;7.00;4.57;;;;;;;35.46;21.25;95242.88;5009109;28;20068;-80
2021/08/09 09:13:57;;;;;;;11.95;4.70;;;;;;;35.37;21.59;95245.19;5018095;28;20048;-80
2021/08/09 09:16:23;;;;;;;9.82;4.90;;;;;;;35.39;21.70;95242.88;5036155;28;20052;-79
2021/08/09 09:18:52;;;;;;;9.70;4.90;;;;;;;35.36;20.96;95238.22;5001933;28;20544;-80
2021/08/09 09:21:32;;;;;;;20.02;5.57;;;;;;;35.31;21.39;95236.63;5018281;28;20041;-80
2021/08/09 09:24:09;;;;;;;14.65;5.00;;;;;;;35.23;21.41;95234.25;5002744;28;20022;-79
2021/08/09 09:26:36;;;;;;;21.70;5.63;;;;;;;35.22;21.29;95230.78;5035783;28;20112;-79
2021/08/09 09:29:06;;;;;;;16.55;5.45;;;;;;;35.20;21.47;95236.56;5002426;28;20033;-80
2021/08/09 09:31:32;;;;;;;16.27;5.07;;;;;;;35.19;20.89;95235.03;5017307;28;20045;-79
2021/08/09 09:33:58;;;;;;;16.00;5.53;;;;;;;34.95;21.26;95230.25;5035651;28;20116;-80
2021/08/09 09:36:23;;;;;;;16.73;5.55;;;;;;;34.74;21.15;95235.53;5034854;28;20037;-79
2021/08/09 09:38:51;;;;;;;19.25;5.50;;;;;;;34.60;22.12;95236.19;5035550;28;20033;-78
2021/08/09 09:41:17;;;;;;;9.27;5.30;;;;;;;34.63;22.38;95240.84;5036114;28;20034;-78
2021/08/09 09:43:44;;;;;;;11.35;5.50;;;;;;;34.55;21.46;95234.63;4986564;28;20448;-78
2021/08/09 09:46:26;;;;;;;15.23;5.47;;;;;;;34.58;21.61;95233.88;5002057;28;20026;-79
2021/08/09 09:49:02;;;;;;;14.27;6.10;;;;;;;34.52;21.83;95229.22;5016943;28;20041;-79
2021/08/09 09:51:27;;;;;;;15.50;5.55;;;;;;;34.47;22.03;95226.84;5035527;28;20037;-79
2021/08/09 09:54:06;;;;;;;19.35;5.55;;;;;;;34.48;22.27;95218.38;5037695;28;20041;-81
2021/08/09 09:56:32;;;;;;;14.30;5.63;;;;;;;34.49;22.42;95219.91;5002917;28;20041;-78
2021/08/09 09:58:57;;;;;;;18.30;5.38;;;;;;;34.53;22.01;95215.34;4985261;28;20052;-78
2021/08/09 10:01:22;;;;;;;14.20;5.60;;;;;;;34.52;21.14;95216.47;5018868;28;20038;-80
2021/08/09 10:03:48;;;;;;;10.05;4.85;;;;;;;34.55;21.89;95207.63;5002583;28;20041;-79
2021/08/09 10:06:13;;;;;;;10.88;5.90;;;;;;;34.57;22.24;95208.03;5038753;28;20022;-80
2021/08/09 10:08:43;;;;;;;9.75;5.95;;;;;;;34.62;21.13;95206.88;5004914;28;20029;-80
2021/08/09 10:11:09;;;;;;;11.93;5.88;;;;;;;34.65;21.23;95195.31;5038598;28;20061;-80
2021/08/09 10:13:35;;;;;;;20.25;6.75;;;;;;;34.71;21.13;95193.06;5020375;28;20072;-80
2021/08/09 10:16:03;;;;;;;13.52;5.70;;;;;;;34.78;20.99;95195.78;5004308;28;20124;-80
2021/08/09 10:18:30;;;;;;;11.50;5.60;;;;;;;34.81;21.08;95190.41;5004614;28;20033;-80
2021/08/09 10:20:57;;;;;;;16.98;5.65;;;;;;;34.85;21.40;95195.84;5004068;28;20029;-80
2021/08/09 10:23:45;;;;;;;10.38;5.43;;;;;;;34.81;20.80;95192.31;5017225;28;20025;-80
2021/08/09 10:26:26;;;;;;;15.48;5.72;;;;;;;34.73;20.70;95196.16;5038288;28;20049;-80
2021/08/09 10:28:52;;;;;;;22.08;6.05;;;;;;;34.67;20.39;95203.06;5038263;28;20041;-80
2021/08/09 10:31:47;;;;;;;18.60;5.95;;;;;;;34.54;21.03;95189.09;5019535;28;20047;-80
2021/08/09 10:34:40;;;;;;;10.45;5.65;;;;;;;34.63;21.34;95191.44;5038807;28;20033;-80
2021/08/09 10:37:08;;;;;;;21.00;5.60;;;;;;;34.66;21.49;95190.69;5038663;28;20255;-80
2021/08/09 10:39:56;;;;;;;13.60;6.30;;;;;;;34.72;21.39;95181.88;5038215;28;20040;-80
2021/08/09 10:42:27;;;;;;;26.02;5.95;;;;;;;34.65;21.06;95192.63;5085738;23;20041;-80
2021/08/09 10:44:53;;;;;;;15.70;5.45;;;;;;;34.61;20.79;95183.72;5058340;28;20056;-79
2021/08/09 10:47:47;;;;;;;13.23;6.07;;;;;;;34.53;20.66;95188.31;5058583;28;20040;-80
2021/08/09 10:50:25;;;;;;;18.38;5.60;;;;;;;34.57;21.22;95183.72;5059572;28;20098;-79
2021/08/09 10:52:50;;;;;;;21.20;6.35;;;;;;;34.56;20.85;95182.16;5056941;28;20036;-80
2021/08/09 10:55:31;;;;;;;13.15;5.80;;;;;;;34.60;21.13;95180.25;5057538;28;20033;-80
2021/08/09 10:58:03;;;;;;;9.57;5.35;;;;;;;34.57;21.22;95178.31;5056632;28;20439;-80
2021/08/09 11:00:40;;;;;;;11.93;6.10;;;;;;;34.46;21.25;95174.75;5057539;28;20036;-80
2021/08/09 11:03:13;;;;;;;13.32;5.53;;;;;;;34.27;21.25;95175.00;5055011;28;20221;-80
2021/08/09 11:05:39;;;;;;;21.90;6.13;;;;;;;34.20;21.30;95174.94;5056934;28;20408;-78
2021/08/09 11:08:20;;;;;;;18.92;5.53;;;;;;;34.13;20.49;95180.28;5057384;28;20028;-80
2021/08/09 11:10:51;;;;;;;18.55;6.32;;;;;;;34.07;20.48;95179.09;5057779;28;20056;-80
2021/08/09 11:13:20;;;;;;;16.05;5.43;;;;;;;33.98;20.74;95174.75;5056617;28;20032;-80
2021/08/09 11:15:58;;;;;;;9.35;5.63;;;;;;;33.78;21.48;95170.72;5036686;28;20040;-80
2021/08/09 11:18:24;;;;;;;20.13;5.47;;;;;;;33.79;21.28;95174.19;5058061;28;20024;-80
2021/08/09 11:21:09;;;;;;;12.85;5.50;;;;;;;33.68;21.67;95171.38;5057274;28;20036;-80
2021/08/09 11:23:47;;;;;;;13.90;5.35;;;;;;;33.71;21.43;95176.81;5057465;28;20178;-80
2021/08/09 11:26:25;;;;;;;18.98;5.95;;;;;;;33.69;21.08;95171.03;5057290;28;20044;-80
2021/08/09 11:29:01;;;;;;;14.38;5.90;;;;;;;33.69;21.70;95176.41;5023019;28;20033;-80
2021/08/09 11:31:46;;;;;;;16.90;5.65;;;;;;;33.72;21.73;95178.38;5039449;28;20040;-80
2021/08/09 11:34:12;;;;;;;18.67;5.60;;;;;;;33.71;21.59;95176.81;5055632;28;20049;-80
2021/08/09 11:36:37;;;;;;;14.65;5.65;;;;;;;33.75;20.99;95174.16;5057148;28;20033;-80
2021/08/09 11:39:04;;;;;;;9.40;5.47;;;;;;;33.82;21.44;95176.13;5057777;28;20524;-80
2021/08/09 11:41:32;;;;;;;10.95;4.95;;;;;;;33.89;21.20;95166.22;5056190;28;20021;-80